Time;durP1;ratioP1;P1;durP2;ratioP2;P2;SDS_P1;SDS_P2;PMS_P1;PMS_P2;Temp;Humidity;BMP_temperature;BMP_pressure;BME280_temperature;BME280_humidity;BME280_pressure;Samples;Min_cycle;Max_cycle;Signal;HPM_P1;HPM_P2
2022/04/07 00:01:17;;;;;;;1.83;1.60;;;;;;;;;;5013148;28;20077;-40
2022/04/07 00:03:42;;;;;;;1.85;1.73;;;;;;;;;;5012873;28;20364;-40
2022/04/07 00:06:11;;;;;;;4.68;1.80;;;;;;;;;;5013159;28;20085;-40
2022/04/07 00:08:38;;;;;;;2.10;1.73;;;;;;;;;;5013369;28;20053;-40
2022/04/07 00:11:04;;;;;;;2.10;1.80;;;;;;;;;;5012790;28;20029;-40
2022/04/07 00:13:29;;;;;;;1.90;1.67;;;;;;;;;;5012757;28;20109;-40
2022/04/07 00:15:56;;;;;;;3.22;1.58;;;;;;;;;;5012731;28;20546;-40
2022/04/07 00:18:22;;;;;;;2.58;1.60;;;;;;;;;;5012912;28;20426;-40
2022/04/07 00:20:48;;;;;;;9.45;2.53;;;;;;;;;;5012749;28;20113;-40
2022/04/07 00:23:14;;;;;;;4.63;2.42;;;;;;;;;;5012880;28;20442;-40
2022/04/07 00:25:39;;;;;;;2.47;1.88;;;;;;;;;;5012603;28;20149;-40
2022/04/07 00:28:05;;;;;;;3.80;1.45;;;;;;;;;;5012816;28;20029;-40
2022/04/07 00:30:30;;;;;;;4.45;2.28;;;;;;;;;;5012541;28;20022;-40
2022/04/07 00:32:56;;;;;;;3.90;1.98;;;;;;;;;;5012864;28;20034;-40
2022/04/07 00:35:24;;;;;;;2.67;2.03;;;;;;;;;;5012478;28;20097;-40
2022/04/07 00:37:50;;;;;;;1.90;1.25;;;;;;;;;;5012766;28;20061;-40
2022/04/07 00:40:17;;;;;;;2.28;2.03;;;;;;;;;;5012526;28;20088;-41
2022/04/07 00:42:47;;;;;;;1.80;1.55;;;;;;;;;;5012695;28;20033;-40
2022/04/07 00:45:16;;;;;;;2.45;1.90;;;;;;;;;;5012758;28;20033;-40
2022/04/07 00:47:43;;;;;;;2.95;1.65;;;;;;;;;;5012319;28;20034;-40
2022/04/07 00:50:13;;;;;;;2.20;1.25;;;;;;;;;;5012720;28;20038;-40
2022/04/07 00:52:45;;;;;;;2.38;1.42;;;;;;;;;;5012427;28;20029;-40
2022/04/07 00:55:12;;;;;;;2.17;1.90;;;;;;;;;;5012676;28;20052;-40
2022/04/07 00:57:39;;;;;;;3.60;2.25;;;;;;;;;;5012228;28;20038;-40
2022/04/07 01:00:06;;;;;;;6.50;2.78;;;;;;;;;;5012366;28;20026;-40
2022/04/07 01:02:32;;;;;;;3.63;2.63;;;;;;;;;;5012619;28;20034;-40
2022/04/07 01:04:58;;;;;;;4.20;2.63;;;;;;;;;;5012536;28;20429;-40
2022/04/07 01:07:25;;;;;;;3.85;2.58;;;;;;;;;;5012621;28;20285;-40
2022/04/07 01:09:51;;;;;;;3.75;2.58;;;;;;;;;;5012522;28;20025;-40
2022/04/07 01:12:17;;;;;;;4.18;2.58;;;;;;;;;;5012460;28;20034;-40
2022/04/07 01:14:59;;;;;;;4.70;2.45;;;;;;;;;;5012253;28;20367;-40
2022/04/07 01:17:25;;;;;;;4.15;2.88;;;;;;;;;;5012361;28;20072;-42
2022/04/07 01:19:51;;;;;;;3.58;2.45;;;;;;;;;;5012416;28;20352;-40
2022/04/07 01:22:18;;;;;;;3.28;2.40;;;;;;;;;;5012460;28;20022;-40
2022/04/07 01:24:43;;;;;;;2.55;1.80;;;;;;;;;;5012142;28;20025;-41
2022/04/07 01:27:11;;;;;;;1.80;1.58;;;;;;;;;;5012407;28;20030;-40
2022/04/07 01:29:38;;;;;;;1.70;1.60;;;;;;;;;;5012027;28;20032;-40
2022/04/07 01:32:46;;;;;;;3.92;2.10;;;;;;;;;;5013335;28;20037;-40
2022/04/07 01:35:12;;;;;;;2.55;1.92;;;;;;;;;;4954918;29;20046;-40
2022/04/07 01:37:40;;;;;;;11.68;3.65;;;;;;;;;;5006548;28;20037;-40
2022/04/07 01:40:09;;;;;;;6.07;2.53;;;;;;;;;;5015503;28;20033;-40
2022/04/07 01:42:36;;;;;;;4.47;2.85;;;;;;;;;;5015482;28;20031;-40
2022/04/07 01:45:05;;;;;;;4.95;2.80;;;;;;;;;;5015669;28;20105;-40
2022/04/07 01:47:33;;;;;;;4.20;2.60;;;;;;;;;;5015421;28;20044;-41
2022/04/07 01:50:09;;;;;;;5.15;2.60;;;;;;;;;;5015294;28;20490;-41
2022/04/07 01:52:36;;;;;;;3.83;2.75;;;;;;;;;;5015094;28;20036;-41
2022/04/07 01:55:03;;;;;;;3.90;2.72;;;;;;;;;;5015254;28;20040;-40
2022/04/07 01:57:30;;;;;;;4.55;2.88;;;;;;;;;;5015051;28;20153;-40
2022/04/07 01:59:56;;;;;;;3.65;2.83;;;;;;;;;;5015459;28;20026;-40
2022/04/07 02:02:24;;;;;;;4.60;3.13;;;;;;;;;;5015441;28;20052;-40
2022/04/07 02:04:57;;;;;;;4.40;3.17;;;;;;;;;;5015026;28;20025;-40
2022/04/07 02:07:28;;;;;;;4.38;3.08;;;;;;;;;;5015051;28;20030;-40
2022/04/07 02:09:53;;;;;;;7.50;2.92;;;;;;;;;;5015279;28;20034;-40
2022/04/07 02:12:20;;;;;;;4.05;2.75;;;;;;;;;;5015017;28;20126;-40
2022/04/07 02:14:49;;;;;;;4.10;2.72;;;;;;;;;;5015160;28;20021;-40
2022/04/07 02:17:20;;;;;;;3.40;2.40;;;;;;;;;;5014705;28;20029;-40
2022/04/07 02:19:54;;;;;;;4.50;2.72;;;;;;;;;;5014822;28;20026;-40
2022/04/07 02:22:20;;;;;;;4.95;2.92;;;;;;;;;;5014820;28;20022;-40
2022/04/07 02:24:47;;;;;;;5.00;3.53;;;;;;;;;;5014768;28;20024;-40
2022/04/07 02:27:13;;;;;;;5.85;2.67;;;;;;;;;;5014576;28;20109;-40
2022/04/07 02:29:39;;;;;;;4.78;2.67;;;;;;;;;;5014831;28;20135;-41
2022/04/07 02:32:05;;;;;;;4.47;2.80;;;;;;;;;;5014838;28;20026;-40
2022/04/07 02:34:31;;;;;;;2.95;2.08;;;;;;;;;;5014497;28;20041;-39
2022/04/07 02:36:56;;;;;;;2.60;1.90;;;;;;;;;;5014711;28;20030;-39
2022/04/07 02:39:22;;;;;;;1.83;1.50;;;;;;;;;;5014480;28;20026;-39
2022/04/07 02:41:48;;;;;;;4.18;2.90;;;;;;;;;;5014365;28;20033;-40
2022/04/07 02:44:13;;;;;;;6.22;2.60;;;;;;;;;;5013281;28;20029;-40
2022/04/07 02:46:39;;;;;;;5.00;2.95;;;;;;;;;;5014493;28;20026;-40
2022/04/07 02:49:05;;;;;;;4.00;2.83;;;;;;;;;;5014143;28;20033;-40
2022/04/07 02:51:31;;;;;;;3.47;2.72;;;;;;;;;;5014207;28;20030;-40
2022/04/07 02:53:59;;;;;;;5.55;2.70;;;;;;;;;;5014061;28;20042;-40
2022/04/07 02:56:25;;;;;;;4.20;2.63;;;;;;;;;;5014053;28;20546;-40
2022/04/07 02:58:51;;;;;;;4.40;2.78;;;;;;;;;;5013994;28;20025;-39
2022/04/07 03:01:17;;;;;;;5.03;2.72;;;;;;;;;;5013683;28;20022;-40
2022/04/07 03:03:43;;;;;;;6.10;3.72;;;;;;;;;;5013989;28;20092;-40
2022/04/07 03:06:09;;;;;;;5.38;3.13;;;;;;;;;;5014146;28;20033;-40
2022/04/07 03:08:34;;;;;;;4.28;3.17;;;;;;;;;;5013824;28;20430;-40
2022/04/07 03:11:00;;;;;;;6.38;3.08;;;;;;;;;;5014135;28;20053;-40
2022/04/07 03:13:26;;;;;;;6.40;3.45;;;;;;;;;;5013910;28;20385;-41
2022/04/07 03:15:51;;;;;;;4.50;3.25;;;;;;;;;;5013947;28;20105;-40
2022/04/07 03:18:18;;;;;;;5.40;3.72;;;;;;;;;;5013638;28;20030;-40
2022/04/07 03:20:43;;;;;;;6.85;3.10;;;;;;;;;;4996660;28;20061;-42
2022/04/07 03:23:09;;;;;;;8.65;3.60;;;;;;;;;;5013644;28;20065;-40
2022/04/07 03:25:36;;;;;;;6.57;3.67;;;;;;;;;;5013553;28;20026;-40
2022/04/07 03:28:03;;;;;;;5.60;3.85;;;;;;;;;;5013524;28;20115;-41
2022/04/07 03:30:28;;;;;;;5.60;3.50;;;;;;;;;;5013822;28;20038;-40
2022/04/07 03:32:54;;;;;;;4.95;3.15;;;;;;;;;;5013681;28;20037;-40
2022/04/07 03:35:20;;;;;;;5.30;3.28;;;;;;;;;;5013430;28;20524;-39
2022/04/07 03:37:45;;;;;;;6.07;3.22;;;;;;;;;;5013600;28;20029;-40
2022/04/07 03:40:11;;;;;;;6.45;3.25;;;;;;;;;;5013608;28;20389;-40
2022/04/07 03:42:37;;;;;;;4.43;3.28;;;;;;;;;;5013500;28;20025;-40
2022/04/07 03:45:03;;;;;;;5.35;3.75;;;;;;;;;;5013442;28;20033;-40
2022/04/07 03:47:30;;;;;;;4.93;3.35;;;;;;;;;;5013383;28;20117;-42
2022/04/07 03:49:55;;;;;;;5.78;3.67;;;;;;;;;;5013128;28;20029;-40
2022/04/07 03:52:21;;;;;;;5.65;3.40;;;;;;;;;;5013356;28;20040;-40
2022/04/07 03:54:46;;;;;;;12.25;4.15;;;;;;;;;;5012707;28;20073;-40
2022/04/07 03:57:12;;;;;;;13.57;4.22;;;;;;;;;;5012899;28;20488;-40
2022/04/07 03:59:39;;;;;;;6.53;3.38;;;;;;;;;;5012969;28;20034;-40
2022/04/07 04:02:06;;;;;;;5.90;3.70;;;;;;;;;;5012987;28;20022;-40
2022/04/07 04:04:32;;;;;;;7.57;3.33;;;;;;;;;;5013201;28;20044;-40
2022/04/07 04:06:58;;;;;;;23.02;4.20;;;;;;;;;;5013139;28;20026;-40
2022/04/07 04:09:23;;;;;;;10.98;3.40;;;;;;;;;;5013039;28;20037;-40
2022/04/07 04:11:49;;;;;;;7.40;3.67;;;;;;;;;;5012740;28;20033;-40
2022/04/07 04:14:15;;;;;;;3.92;2.53;;;;;;;;;;5012980;28;20034;-40
2022/04/07 04:16:42;;;;;;;5.85;3.70;;;;;;;;;;5012693;28;20037;-39
2022/04/07 04:19:07;;;;;;;7.10;3.25;;;;;;;;;;5012569;28;20079;-42
2022/04/07 04:21:33;;;;;;;7.35;3.58;;;;;;;;;;5012831;28;20030;-40
2022/04/07 04:23:58;;;;;;;2.65;2.25;;;;;;;;;;5012942;28;20168;-40
2022/04/07 04:26:24;;;;;;;4.80;2.55;;;;;;;;;;5012572;28;20017;-39
2022/04/07 04:28:49;;;;;;;6.75;3.13;;;;;;;;;;5012576;28;20103;-41
2022/04/07 04:31:20;;;;;;;8.98;3.92;;;;;;;;;;5012761;28;20024;-40
2022/04/07 04:33:45;;;;;;;8.10;4.82;;;;;;;;;;5012690;28;20036;-41
2022/04/07 04:36:11;;;;;;;11.05;4.63;;;;;;;;;;5012763;28;20026;-40
2022/04/07 04:38:36;;;;;;;7.32;4.25;;;;;;;;;;5012053;28;20021;-41
2022/04/07 04:41:02;;;;;;;5.97;3.70;;;;;;;;;;5012453;28;20038;-42
2022/04/07 04:43:27;;;;;;;3.95;2.85;;;;;;;;;;5012437;28;20129;-40
2022/04/07 04:45:53;;;;;;;4.50;3.10;;;;;;;;;;5012599;28;20018;-40
2022/04/07 04:48:18;;;;;;;4.90;3.08;;;;;;;;;;5012630;28;20026;-43
2022/04/07 04:50:44;;;;;;;5.05;2.50;;;;;;;;;;5012330;28;20410;-41
2022/04/07 04:53:09;;;;;;;7.00;2.72;;;;;;;;;;5012238;28;20046;-41
2022/04/07 04:55:35;;;;;;;5.00;2.72;;;;;;;;;;5012590;28;20105;-39
2022/04/07 04:58:00;;;;;;;8.98;5.70;;;;;;;;;;5012510;28;20400;-39
2022/04/07 05:00:26;;;;;;;3.92;2.97;;;;;;;;;;5012552;28;20459;-40
2022/04/07 05:02:52;;;;;;;5.78;3.35;;;;;;;;;;5012273;28;20613;-41
2022/04/07 05:05:17;;;;;;;5.18;3.63;;;;;;;;;;5012289;28;20069;-41
2022/04/07 05:07:43;;;;;;;4.88;3.25;;;;;;;;;;5014760;28;20037;-40
2022/04/07 05:10:08;;;;;;;3.80;2.90;;;;;;;;;;5015932;28;20109;-40
2022/04/07 05:12:34;;;;;;;5.35;3.75;;;;;;;;;;5015927;28;20113;-41
2022/04/07 05:14:59;;;;;;;8.25;4.70;;;;;;;;;;5016008;28;20041;-40
2022/04/07 05:17:25;;;;;;;7.45;4.80;;;;;;;;;;5014446;28;20390;-40
2022/04/07 05:19:51;;;;;;;7.35;4.18;;;;;;;;;;5015648;28;20030;-42
2022/04/07 05:22:16;;;;;;;5.80;4.20;;;;;;;;;;5015823;28;20044;-40
2022/04/07 05:24:42;;;;;;;6.60;4.65;;;;;;;;;;5015226;28;20105;-42
2022/04/07 05:27:08;;;;;;;5.50;4.15;;;;;;;;;;5014057;28;20034;-41
2022/04/07 05:29:33;;;;;;;4.43;3.72;;;;;;;;;;5014087;28;20065;-42
2022/04/07 05:31:59;;;;;;;8.70;4.18;;;;;;;;;;5014073;28;20385;-41
2022/04/07 05:34:24;;;;;;;5.95;4.65;;;;;;;;;;5014049;28;20034;-43
2022/04/07 05:36:49;;;;;;;9.13;5.63;;;;;;;;;;5015580;28;20026;-41
2022/04/07 05:39:15;;;;;;;9.63;5.38;;;;;;;;;;5015467;28;20382;-42
2022/04/07 05:41:41;;;;;;;7.20;5.75;;;;;;;;;;5015033;28;20071;-47
2022/04/07 05:44:06;;;;;;;6.68;5.47;;;;;;;;;;5014407;28;20065;-46
2022/04/07 05:46:32;;;;;;;8.88;5.78;;;;;;;;;;5014347;28;20056;-45
2022/04/07 05:48:57;;;;;;;12.18;6.35;;;;;;;;;;5015044;28;20034;-41
2022/04/07 05:51:23;;;;;;;12.27;6.68;;;;;;;;;;5015109;28;20026;-44
2022/04/07 05:53:48;;;;;;;11.70;7.68;;;;;;;;;;5015356;28;20054;-42
2022/04/07 05:56:14;;;;;;;10.85;7.07;;;;;;;;;;5015114;28;20018;-46
2022/04/07 05:58:39;;;;;;;11.23;6.95;;;;;;;;;;5015373;28;20108;-44
2022/04/07 06:01:04;;;;;;;11.27;7.40;;;;;;;;;;5015332;28;20378;-46
2022/04/07 06:03:31;;;;;;;10.23;6.97;;;;;;;;;;5015377;28;20149;-46
2022/04/07 06:05:58;;;;;;;11.45;7.68;;;;;;;;;;5015235;28;20485;-46
2022/04/07 06:08:23;;;;;;;11.40;7.78;;;;;;;;;;5014782;28;20390;-44
2022/04/07 06:10:49;;;;;;;10.25;7.38;;;;;;;;;;5014698;28;20030;-45
2022/04/07 06:13:15;;;;;;;12.63;8.13;;;;;;;;;;5015006;28;20026;-46
2022/04/07 06:15:41;;;;;;;11.70;7.63;;;;;;;;;;5014993;28;20421;-45
2022/04/07 06:18:07;;;;;;;14.52;7.80;;;;;;;;;;5014762;28;20038;-47
2022/04/07 06:20:32;;;;;;;11.40;7.32;;;;;;;;;;5014910;28;20458;-47
2022/04/07 06:22:58;;;;;;;12.52;8.25;;;;;;;;;;5014968;28;20033;-44
2022/04/07 06:25:24;;;;;;;13.00;8.15;;;;;;;;;;5014059;28;20040;-41
2022/04/07 06:27:49;;;;;;;10.68;7.80;;;;;;;;;;5014611;28;20026;-43
2022/04/07 06:30:17;;;;;;;10.45;8.00;;;;;;;;;;5014847;28;20037;-43
2022/04/07 06:32:44;;;;;;;14.35;7.43;;;;;;;;;;5014422;28;20022;-43
2022/04/07 06:35:11;;;;;;;10.98;7.60;;;;;;;;;;5014495;28;20034;-42
2022/04/07 06:37:56;;;;;;;9.95;7.25;;;;;;;;;;4996733;28;20083;-45
2022/04/07 06:40:24;;;;;;;11.23;7.38;;;;;;;;;;5014041;28;20030;-40
2022/04/07 06:42:51;;;;;;;10.35;7.53;;;;;;;;;;5014430;28;20421;-42
2022/04/07 06:45:17;;;;;;;10.95;6.93;;;;;;;;;;5014321;28;20022;-45
2022/04/07 06:47:43;;;;;;;12.85;7.35;;;;;;;;;;5014171;28;20493;-46
2022/04/07 06:50:16;;;;;;;11.63;7.43;;;;;;;;;;5014404;28;20470;-44
2022/04/07 06:52:42;;;;;;;8.35;6.60;;;;;;;;;;5013089;28;20037;-45
2022/04/07 06:55:10;;;;;;;8.60;6.75;;;;;;;;;;5014096;28;20052;-42
2022/04/07 06:57:55;;;;;;;9.88;6.80;;;;;;;;;;5014284;28;20030;-41
2022/04/07 07:00:24;;;;;;;9.55;5.82;;;;;;;;;;5013587;28;20502;-43
2022/04/07 07:02:54;;;;;;;9.68;6.53;;;;;;;;;;5013990;28;20482;-41
2022/04/07 07:05:23;;;;;;;10.00;6.97;;;;;;;;;;5013889;28;20055;-42
2022/04/07 07:07:49;;;;;;;8.00;6.45;;;;;;;;;;4996180;28;20080;-43
2022/04/07 07:10:23;;;;;;;8.68;6.40;;;;;;;;;;5013870;28;20026;-43
2022/04/07 07:12:49;;;;;;;7.20;5.57;;;;;;;;;;4996146;28;20033;-45
2022/04/07 07:15:15;;;;;;;8.85;6.22;;;;;;;;;;5009219;28;20111;-43
2022/04/07 07:17:40;;;;;;;12.80;7.18;;;;;;;;;;5012846;28;20470;-46
2022/04/07 07:20:11;;;;;;;10.88;6.63;;;;;;;;;;5013423;28;20053;-42
2022/04/07 07:22:41;;;;;;;8.63;5.85;;;;;;;;;;5013531;28;20072;-43
2022/04/07 07:25:08;;;;;;;9.38;5.95;;;;;;;;;;5013865;28;20096;-45
2022/04/07 07:27:44;;;;;;;8.38;5.93;;;;;;;;;;5013722;28;20022;-44
2022/04/07 07:30:12;;;;;;;14.35;6.78;;;;;;;;;;5012540;28;20021;-42
2022/04/07 07:32:41;;;;;;;11.23;5.93;;;;;;;;;;5013070;28;20031;-44
2022/04/07 07:35:08;;;;;;;11.10;6.30;;;;;;;;;;5013290;28;20026;-42
2022/04/07 07:37:35;;;;;;;9.32;6.32;;;;;;;;;;5013397;28;20443;-44
2022/04/07 07:40:05;;;;;;;9.13;6.28;;;;;;;;;;5013501;28;20359;-42
2022/04/07 07:42:30;;;;;;;10.60;6.50;;;;;;;;;;5013149;28;20049;-42
2022/04/07 07:44:56;;;;;;;10.90;5.95;;;;;;;;;;5012976;28;20061;-46
2022/04/07 07:47:21;;;;;;;10.07;6.05;;;;;;;;;;5012376;28;20034;-45
2022/04/07 07:49:47;;;;;;;11.15;6.43;;;;;;;;;;5011729;28;20032;-47
2022/04/07 07:52:12;;;;;;;9.45;6.90;;;;;;;;;;5011791;28;20359;-46
2022/04/07 07:54:38;;;;;;;8.90;6.10;;;;;;;;;;5011372;28;20445;-45
2022/04/07 07:57:03;;;;;;;8.40;5.97;;;;;;;;;;5011441;28;20025;-45
2022/04/07 07:59:29;;;;;;;9.00;5.55;;;;;;;;;;5011278;28;20378;-46
2022/04/07 08:01:54;;;;;;;8.55;6.22;;;;;;;;;;5011387;28;20062;-44
2022/04/07 08:04:20;;;;;;;12.15;5.75;;;;;;;;;;5011389;28;20030;-48
2022/04/07 08:06:45;;;;;;;12.95;5.82;;;;;;;;;;5011577;28;20683;-46
2022/04/07 08:09:13;;;;;;;8.23;6.10;;;;;;;;;;5011257;28;20101;-45
2022/04/07 08:11:41;;;;;;;7.18;5.60;;;;;;;;;;5011300;28;20033;-49
2022/04/07 08:14:06;;;;;;;8.00;5.95;;;;;;;;;;5011523;28;20041;-49
2022/04/07 08:16:32;;;;;;;7.90;6.13;;;;;;;;;;4993443;28;20617;-45
2022/04/07 08:18:57;;;;;;;7.05;5.70;;;;;;;;;;5010936;28;20049;-42
2022/04/07 08:21:23;;;;;;;14.52;6.28;;;;;;;;;;5011131;28;20034;-43
2022/04/07 08:23:48;;;;;;;10.45;6.43;;;;;;;;;;5011264;28;20025;-47
2022/04/07 08:26:14;;;;;;;11.45;6.35;;;;;;;;;;5011068;28;20084;-47
2022/04/07 08:28:40;;;;;;;7.82;6.28;;;;;;;;;;5010914;28;20117;-44
2022/04/07 08:31:05;;;;;;;8.98;6.82;;;;;;;;;;5011289;28;20032;-45
2022/04/07 08:33:31;;;;;;;8.75;6.50;;;;;;;;;;5010632;28;20068;-45
2022/04/07 08:35:56;;;;;;;9.00;6.07;;;;;;;;;;5011203;28;20030;-45
2022/04/07 08:38:22;;;;;;;9.60;6.45;;;;;;;;;;5011074;28;20544;-45
2022/04/07 08:40:53;;;;;;;10.93;7.15;;;;;;;;;;5011116;28;20036;-42
2022/04/07 08:43:19;;;;;;;8.10;6.60;;;;;;;;;;5014626;28;20037;-43
2022/04/07 08:45:45;;;;;;;11.52;6.65;;;;;;;;;;5015040;28;20040;-42
2022/04/07 08:48:12;;;;;;;11.45;7.40;;;;;;;;;;5014745;28;20030;-42
2022/04/07 08:50:42;;;;;;;10.80;7.38;;;;;;;;;;5014847;28;20260;-44
2022/04/07 08:53:09;;;;;;;12.75;7.20;;;;;;;;;;5014085;28;20049;-43
2022/04/07 08:55:35;;;;;;;12.65;7.05;;;;;;;;;;5014430;28;20497;-45
2022/04/07 08:58:01;;;;;;;8.90;7.00;;;;;;;;;;5015005;28;20030;-45
2022/04/07 09:00:27;;;;;;;12.43;7.82;;;;;;;;;;5013724;28;20030;-42
2022/04/07 09:02:53;;;;;;;12.35;8.18;;;;;;;;;;5014622;28;20030;-47
2022/04/07 09:05:23;;;;;;;12.98;7.93;;;;;;;;;;5014534;28;20034;-42
2022/04/07 09:07:50;;;;;;;9.45;7.45;;;;;;;;;;5014687;28;20034;-44
2022/04/07 09:10:18;;;;;;;12.80;8.85;;;;;;;;;;5014406;28;20037;-43
2022/04/07 09:12:44;;;;;;;12.93;8.32;;;;;;;;;;5014649;28;20021;-45
2022/04/07 09:15:12;;;;;;;10.50;7.97;;;;;;;;;;5014735;28;20034;-45
2022/04/07 09:17:52;;;;;;;11.85;8.10;;;;;;;;;;5014123;28;20030;-44
2022/04/07 09:20:18;;;;;;;12.15;8.73;;;;;;;;;;5014709;28;20037;-45
2022/04/07 09:22:44;;;;;;;10.32;8.50;;;;;;;;;;5014139;28;20038;-47
2022/04/07 09:25:12;;;;;;;15.63;9.02;;;;;;;;;;5014177;28;20466;-43
2022/04/07 09:27:41;;;;;;;14.32;10.13;;;;;;;;;;5014337;28;20113;-42
2022/04/07 09:30:08;;;;;;;12.65;8.70;;;;;;;;;;5014154;28;20034;-47
2022/04/07 09:32:41;;;;;;;12.90;9.00;;;;;;;;;;5014343;28;20030;-45
2022/04/07 09:35:07;;;;;;;13.50;9.20;;;;;;;;;;5014485;28;20382;-42
2022/04/07 09:37:34;;;;;;;13.45;9.15;;;;;;;;;;5014195;28;20045;-43
2022/04/07 09:40:12;;;;;;;15.23;9.40;;;;;;;;;;5014008;28;20474;-42
2022/04/07 09:42:38;;;;;;;11.18;9.07;;;;;;;;;;5015815;28;20080;-41
2022/04/07 09:45:07;;;;;;;12.60;9.10;;;;;;;;;;5015343;28;20030;-46
2022/04/07 09:47:44;;;;;;;16.42;10.23;;;;;;;;;;5015436;28;20040;-42
2022/04/07 09:50:24;;;;;;;15.30;9.30;;;;;;;;;;5015567;28;20018;-48
2022/04/07 09:53:03;;;;;;;13.50;9.43;;;;;;;;;;5014721;28;20042;-47
2022/04/07 09:55:34;;;;;;;13.37;9.27;;;;;;;;;;5015256;28;20478;-44
2022/04/07 09:58:02;;;;;;;12.27;9.02;;;;;;;;;;5015385;28;20443;-43
2022/04/07 10:00:28;;;;;;;12.85;9.02;;;;;;;;;;5015216;28;20037;-45
2022/04/07 10:02:54;;;;;;;14.38;8.82;;;;;;;;;;5015197;28;20033;-45
2022/04/07 10:05:22;;;;;;;16.85;9.85;;;;;;;;;;5015216;28;20080;-42
2022/04/07 10:07:48;;;;;;;13.63;9.32;;;;;;;;;;5014039;28;20045;-43
2022/04/07 10:10:14;;;;;;;17.13;10.27;;;;;;;;;;5011513;28;20068;-43
2022/04/07 10:12:41;;;;;;;13.38;8.73;;;;;;;;;;4995894;28;20410;-47
2022/04/07 10:15:07;;;;;;;12.45;9.13;;;;;;;;;;5013484;28;20029;-42
2022/04/07 10:17:35;;;;;;;15.38;9.95;;;;;;;;;;5013488;28;20501;-46
2022/04/07 10:20:06;;;;;;;14.40;9.00;;;;;;;;;;5013469;28;20171;-46
2022/04/07 10:22:49;;;;;;;11.63;8.65;;;;;;;;;;5013545;28;20489;-43
2022/04/07 10:25:16;;;;;;;14.43;8.65;;;;;;;;;;5013307;28;20030;-46
2022/04/07 10:27:49;;;;;;;12.18;8.05;;;;;;;;;;5013287;28;20419;-46
2022/04/07 10:30:16;;;;;;;11.10;7.80;;;;;;;;;;5013390;28;20029;-43
2022/04/07 10:32:46;;;;;;;11.32;8.38;;;;;;;;;;5012663;28;20022;-45
2022/04/07 10:35:36;;;;;;;13.40;8.30;;;;;;;;;;5011430;28;20025;-46
2022/04/07 10:38:14;;;;;;;17.25;8.48;;;;;;;;;;5011320;28;20065;-41
2022/04/07 10:40:50;;;;;;;14.95;8.23;;;;;;;;;;5011786;28;20084;-43
2022/04/07 10:43:18;;;;;;;13.40;8.70;;;;;;;;;;5011373;28;20502;-45
2022/04/07 10:45:46;;;;;;;16.23;9.90;;;;;;;;;;5011337;28;20034;-44
2022/04/07 10:48:18;;;;;;;19.55;10.80;;;;;;;;;;5011214;28;20021;-42
2022/04/07 10:50:49;;;;;;;16.77;10.20;;;;;;;;;;5011463;28;20033;-43
2022/04/07 10:53:21;;;;;;;13.77;9.93;;;;;;;;;;5011163;28;20092;-44
2022/04/07 10:56:08;;;;;;;30.05;9.55;;;;;;;;;;5010795;28;20025;-41
2022/04/07 10:58:40;;;;;;;22.48;10.40;;;;;;;;;;5011130;28;20030;-45
2022/04/07 11:01:06;;;;;;;17.65;10.27;;;;;;;;;;5010865;28;20125;-43
2022/04/07 11:03:32;;;;;;;15.30;10.25;;;;;;;;;;5010597;28;20573;-45
2022/04/07 11:06:03;;;;;;;15.70;9.40;;;;;;;;;;5010549;28;20025;-45
2022/04/07 11:08:30;;;;;;;13.43;9.75;;;;;;;;;;5010864;28;20498;-43
2022/04/07 11:10:56;;;;;;;13.50;8.77;;;;;;;;;;5010662;28;20360;-42
2022/04/07 11:13:45;;;;;;;16.95;9.45;;;;;;;;;;5011191;28;20033;-44
2022/04/07 11:16:28;;;;;;;11.83;9.17;;;;;;;;;;5010638;28;20038;-41
2022/04/07 11:19:03;;;;;;;13.30;8.48;;;;;;;;;;5011970;28;20496;-42
2022/04/07 11:21:43;;;;;;;12.38;8.98;;;;;;;;;;5011923;28;20037;-45
2022/04/07 11:24:26;;;;;;;15.75;8.95;;;;;;;;;;5011988;28;20033;-45
2022/04/07 11:26:53;;;;;;;12.07;8.45;;;;;;;;;;5012207;28;20381;-46
2022/04/07 11:29:34;;;;;;;13.95;9.52;;;;;;;;;;5011253;28;20041;-47
2022/04/07 11:32:09;;;;;;;12.38;9.85;;;;;;;;;;5011910;28;20025;-43
2022/04/07 11:34:41;;;;;;;16.65;10.10;;;;;;;;;;5011804;28;20033;-43
2022/04/07 11:37:07;;;;;;;11.98;9.75;;;;;;;;;;5011664;28;20037;-44
2022/04/07 11:39:33;;;;;;;14.57;10.02;;;;;;;;;;5011523;28;20030;-44
2022/04/07 11:42:00;;;;;;;15.98;11.13;;;;;;;;;;5011558;28;20163;-49
2022/04/07 11:44:26;;;;;;;11.60;9.85;;;;;;;;;;4994066;28;20151;-43
2022/04/07 11:46:52;;;;;;;21.15;10.55;;;;;;;;;;5011508;28;20026;-43
2022/04/07 11:49:17;;;;;;;16.58;9.80;;;;;;;;;;5011752;28;20172;-45
2022/04/07 11:51:46;;;;;;;16.52;9.05;;;;;;;;;;5011846;28;20474;-43
2022/04/07 11:54:16;;;;;;;12.00;8.90;;;;;;;;;;5011008;28;20072;-43
2022/04/07 11:56:42;;;;;;;24.05;9.55;;;;;;;;;;5011804;28;20393;-47
2022/04/07 11:59:12;;;;;;;14.40;8.93;;;;;;;;;;5011189;28;20044;-44
2022/04/07 12:01:41;;;;;;;12.93;9.63;;;;;;;;;;5011579;28;20030;-46
2022/04/07 12:04:11;;;;;;;12.88;10.13;;;;;;;;;;5011442;28;20441;-43
2022/04/07 12:06:40;;;;;;;;;;;;;;;;;;5011808;28;20121;-44
2022/04/07 12:09:06;;;;;;;12.25;8.55;;;;;;;;;;5011281;28;19917;-45
2022/04/07 12:11:37;;;;;;;14.30;8.27;;;;;;;;;;5011495;28;20044;-43
2022/04/07 12:14:06;;;;;;;;;;;;;;;;;;5011744;28;20095;-47
2022/04/07 12:16:32;;;;;;;13.98;8.25;;;;;;;;;;5010833;28;20407;-43
2022/04/07 12:19:00;;;;;;;12.20;8.20;;;;;;;;;;5011090;28;20030;-43
2022/04/07 12:21:27;;;;;;;11.32;8.45;;;;;;;;;;5011021;28;20076;-46
2022/04/07 12:24:11;;;;;;;10.88;8.55;;;;;;;;;;5011053;28;20065;-41
2022/04/07 12:26:40;;;;;;;13.50;8.73;;;;;;;;;;5011229;28;20052;-44
2022/04/07 12:29:07;;;;;;;17.88;9.77;;;;;;;;;;5011215;28;20109;-49
2022/04/07 12:31:32;;;;;;;14.30;8.88;;;;;;;;;;5010923;28;20540;-45
2022/04/07 12:34:09;;;;;;;12.02;8.77;;;;;;;;;;5011003;28;20124;-44
2022/04/07 12:36:37;;;;;;;12.43;9.00;;;;;;;;;;5010951;28;20474;-44
2022/04/07 12:39:08;;;;;;;24.65;14.43;;;;;;;;;;5011129;28;20124;-44
2022/04/07 12:41:49;;;;;;;16.45;9.45;;;;;;;;;;5010737;28;20537;-43
2022/04/07 12:44:39;;;;;;;18.52;11.57;;;;;;;;;;5010461;28;20042;-44
2022/04/07 12:47:18;;;;;;;19.42;11.30;;;;;;;;;;5011171;28;20026;-41
2022/04/07 12:49:57;;;;;;;13.88;9.70;;;;;;;;;;5010807;28;20026;-42
2022/04/07 12:52:41;;;;;;;16.33;9.80;;;;;;;;;;5010474;28;20030;-43
2022/04/07 12:55:12;;;;;;;13.25;10.55;;;;;;;;;;5011035;28;20034;-43
2022/04/07 12:57:39;;;;;;;14.23;9.98;;;;;;;;;;5011011;28;20052;-41
2022/04/07 13:00:12;;;;;;;14.55;9.43;;;;;;;;;;5010902;28;20030;-42
2022/04/07 13:02:42;;;;;;;12.48;9.80;;;;;;;;;;5010974;28;20037;-42
2022/04/07 13:05:08;;;;;;;11.55;8.82;;;;;;;;;;5010700;28;20509;-40
2022/04/07 13:07:34;;;;;;;27.63;10.65;;;;;;;;;;5010951;28;20038;-40
2022/04/07 13:09:59;;;;;;;17.73;10.85;;;;;;;;;;5010787;28;20469;-40
2022/04/07 13:12:24;;;;;;;12.75;9.32;;;;;;;;;;5010653;28;20449;-41
2022/04/07 13:14:50;;;;;;;13.93;9.25;;;;;;;;;;5010882;28;20030;-41
2022/04/07 13:17:15;;;;;;;13.93;10.02;;;;;;;;;;4992977;28;20033;-48
2022/04/07 13:19:41;;;;;;;13.23;9.07;;;;;;;;;;5010761;28;20386;-41
2022/04/07 13:22:07;;;;;;;14.38;9.30;;;;;;;;;;5010761;28;20022;-46
2022/04/07 13:24:32;;;;;;;19.63;9.93;;;;;;;;;;5010467;28;20442;-47
2022/04/07 13:26:58;;;;;;;17.80;9.40;;;;;;;;;;5010689;28;20033;-48
2022/04/07 13:29:24;;;;;;;16.38;9.65;;;;;;;;;;5013967;28;20048;-44
2022/04/07 13:31:51;;;;;;;12.65;9.63;;;;;;;;;;5014128;28;20492;-44
2022/04/07 13:34:17;;;;;;;28.50;9.75;;;;;;;;;;5013608;28;20117;-42
2022/04/07 13:36:43;;;;;;;15.52;8.77;;;;;;;;;;5014250;28;20025;-43
2022/04/07 13:39:09;;;;;;;14.27;8.85;;;;;;;;;;5013927;28;20095;-41
2022/04/07 13:41:35;;;;;;;12.05;8.68;;;;;;;;;;5012572;28;20038;-42
2022/04/07 13:44:01;;;;;;;16.08;9.27;;;;;;;;;;5013886;28;20556;-41
2022/04/07 13:46:26;;;;;;;13.00;8.80;;;;;;;;;;5013960;28;20199;-43
2022/04/07 13:48:52;;;;;;;17.30;8.63;;;;;;;;;;5013959;28;20022;-42
2022/04/07 13:51:18;;;;;;;12.20;8.60;;;;;;;;;;5013809;28;20025;-41
2022/04/07 13:53:44;;;;;;;10.82;8.88;;;;;;;;;;5013570;28;20054;-42
2022/04/07 13:56:09;;;;;;;11.38;7.90;;;;;;;;;;5013774;28;20038;-41
2022/04/07 13:58:35;;;;;;;14.93;10.13;;;;;;;;;;5013560;28;20037;-41
2022/04/07 14:01:02;;;;;;;17.80;8.40;;;;;;;;;;5013847;28;20559;-41
2022/04/07 14:03:28;;;;;;;11.63;8.43;;;;;;;;;;5013809;28;20034;-42
2022/04/07 14:05:58;;;;;;;11.90;8.25;;;;;;;;;;5013745;28;20036;-44
2022/04/07 14:08:25;;;;;;;11.35;8.30;;;;;;;;;;5013601;28;20030;-43
2022/04/07 14:10:50;;;;;;;15.55;8.63;;;;;;;;;;5013564;28;20084;-44
2022/04/07 14:13:18;;;;;;;13.48;8.70;;;;;;;;;;5013733;28;20022;-44
2022/04/07 14:15:45;;;;;;;11.25;8.73;;;;;;;;;;5013419;28;20636;-44
2022/04/07 14:18:11;;;;;;;11.00;8.52;;;;;;;;;;5013569;28;20116;-43
2022/04/07 14:20:37;;;;;;;11.35;8.30;;;;;;;;;;5013434;28;20116;-44
2022/04/07 14:23:03;;;;;;;12.73;8.88;;;;;;;;;;5013354;28;20113;-48
2022/04/07 14:25:28;;;;;;;12.38;7.93;;;;;;;;;;4995485;28;20117;-45
2022/04/07 14:27:54;;;;;;;13.18;8.65;;;;;;;;;;5013212;28;20041;-44
2022/04/07 14:30:20;;;;;;;12.07;8.38;;;;;;;;;;5013273;28;20037;-42
2022/04/07 14:32:46;;;;;;;13.00;9.20;;;;;;;;;;5013047;28;20733;-43
2022/04/07 14:35:15;;;;;;;13.57;8.82;;;;;;;;;;5012908;28;20690;-43
2022/04/07 14:37:40;;;;;;;12.07;8.93;;;;;;;;;;5012675;28;20092;-45
2022/04/07 14:40:07;;;;;;;12.75;8.88;;;;;;;;;;5012811;28;20026;-45